sensor_id;sensor_type;location;lat;lon;timestamp;P1;durP1;ratioP1;P2;durP2;ratioP2
9200;SDS011;4635;48.686;9.008;2022-08-18T00:02:08;8.13;;;7.30;;
9200;SDS011;4635;48.686;9.008;2022-08-18T00:04:40;7.00;;;6.30;;
9200;SDS011;4635;48.686;9.008;2022-08-18T00:07:13;8.20;;;7.33;;
9200;SDS011;4635;48.686;9.008;2022-08-18T00:09:42;7.67;;;6.90;;
9200;SDS011;4635;48.686;9.008;2022-08-18T00:12:13;8.20;;;6.27;;
9200;SDS011;4635;48.686;9.008;2022-08-18T00:14:43;7.13;;;6.17;;
9200;SDS011;4635;48.686;9.008;2022-08-18T00:17:10;9.13;;;7.17;;
9200;SDS011;4635;48.686;9.008;2022-08-18T00:19:40;6.87;;;6.23;;
9200;SDS011;4635;48.686;9.008;2022-08-18T00:22:07;8.43;;;6.17;;
9200;SDS011;4635;48.686;9.008;2022-08-18T00:24:34;9.53;;;7.03;;
9200;SDS011;4635;48.686;9.008;2022-08-18T00:27:02;8.93;;;6.30;;
9200;SDS011;4635;48.686;9.008;2022-08-18T00:29:30;7.20;;;6.07;;
9200;SDS011;4635;48.686;9.008;2022-08-18T00:31:57;8.60;;;7.10;;
9200;SDS011;4635;48.686;9.008;2022-08-18T00:34:24;11.63;;;6.30;;
9200;SDS011;4635;48.686;9.008;2022-08-18T00:36:53;7.20;;;6.57;;
9200;SDS011;4635;48.686;9.008;2022-08-18T00:39:20;10.00;;;5.40;;
9200;SDS011;4635;48.686;9.008;2022-08-18T00:41:47;8.20;;;6.80;;
9200;SDS011;4635;48.686;9.008;2022-08-18T00:44:14;11.90;;;7.03;;
9200;SDS011;4635;48.686;9.008;2022-08-18T00:46:40;8.60;;;7.80;;
9200;SDS011;4635;48.686;9.008;2022-08-18T00:49:08;7.70;;;7.00;;
9200;SDS011;4635;48.686;9.008;2022-08-18T00:51:41;9.80;;;7.30;;
9200;SDS011;4635;48.686;9.008;2022-08-18T00:54:14;9.17;;;6.90;;
9200;SDS011;4635;48.686;9.008;2022-08-18T00:56:46;7.63;;;6.93;;
9200;SDS011;4635;48.686;9.008;2022-08-18T00:59:19;7.80;;;7.00;;
9200;SDS011;4635;48.686;9.008;2022-08-18T01:01:51;8.27;;;7.47;;
9200;SDS011;4635;48.686;9.008;2022-08-18T01:04:21;10.97;;;7.43;;
9200;SDS011;4635;48.686;9.008;2022-08-18T01:06:53;7.60;;;6.33;;
9200;SDS011;4635;48.686;9.008;2022-08-18T01:09:26;8.77;;;7.87;;
9200;SDS011;4635;48.686;9.008;2022-08-18T01:11:53;7.90;;;7.07;;
9200;SDS011;4635;48.686;9.008;2022-08-18T01:14:20;8.07;;;7.33;;
9200;SDS011;4635;48.686;9.008;2022-08-18T01:16:48;7.90;;;7.10;;
9200;SDS011;4635;48.686;9.008;2022-08-18T01:19:34;8.30;;;7.50;;
9200;SDS011;4635;48.686;9.008;2022-08-18T01:22:24;6.70;;;6.10;;
9200;SDS011;4635;48.686;9.008;2022-08-18T01:24:58;10.77;;;7.30;;
9200;SDS011;4635;48.686;9.008;2022-08-18T01:27:44;8.50;;;7.50;;
9200;SDS011;4635;48.686;9.008;2022-08-18T01:30:12;7.90;;;7.20;;
9200;SDS011;4635;48.686;9.008;2022-08-18T01:32:42;7.47;;;6.77;;
9200;SDS011;4635;48.686;9.008;2022-08-18T01:35:10;8.60;;;7.80;;
9200;SDS011;4635;48.686;9.008;2022-08-18T01:37:41;11.80;;;7.67;;
9200;SDS011;4635;48.686;9.008;2022-08-18T01:40:11;7.30;;;6.60;;
9200;SDS011;4635;48.686;9.008;2022-08-18T01:42:40;9.03;;;8.23;;
9200;SDS011;4635;48.686;9.008;2022-08-18T01:45:11;8.10;;;6.33;;
9200;SDS011;4635;48.686;9.008;2022-08-18T01:47:39;8.80;;;6.97;;
9200;SDS011;4635;48.686;9.008;2022-08-18T01:50:07;7.70;;;6.93;;
9200;SDS011;4635;48.686;9.008;2022-08-18T01:52:37;7.57;;;6.97;;
9200;SDS011;4635;48.686;9.008;2022-08-18T01:55:05;9.80;;;7.00;;
9200;SDS011;4635;48.686;9.008;2022-08-18T01:57:36;12.23;;;6.73;;
9200;SDS011;4635;48.686;9.008;2022-08-18T02:00:09;7.97;;;7.17;;
9200;SDS011;4635;48.686;9.008;2022-08-18T02:02:37;9.30;;;7.53;;
9200;SDS011;4635;48.686;9.008;2022-08-18T02:05:08;7.53;;;6.83;;
9200;SDS011;4635;48.686;9.008;2022-08-18T02:07:37;7.83;;;7.03;;
9200;SDS011;4635;48.686;9.008;2022-08-18T02:10:05;7.57;;;6.73;;
9200;SDS011;4635;48.686;9.008;2022-08-18T02:12:36;7.43;;;6.70;;
9200;SDS011;4635;48.686;9.008;2022-08-18T02:15:03;9.97;;;7.30;;
9200;SDS011;4635;48.686;9.008;2022-08-18T02:17:35;11.43;;;9.33;;
9200;SDS011;4635;48.686;9.008;2022-08-18T02:20:03;8.00;;;7.23;;
9200;SDS011;4635;48.686;9.008;2022-08-18T02:22:32;8.37;;;7.33;;
9200;SDS011;4635;48.686;9.008;2022-08-18T02:24:59;8.87;;;7.77;;
9200;SDS011;4635;48.686;9.008;2022-08-18T02:27:26;7.83;;;6.93;;
9200;SDS011;4635;48.686;9.008;2022-08-18T02:29:55;8.27;;;7.47;;
9200;SDS011;4635;48.686;9.008;2022-08-18T02:32:24;8.57;;;7.67;;
9200;SDS011;4635;48.686;9.008;2022-08-18T02:34:53;7.30;;;6.63;;
9200;SDS011;4635;48.686;9.008;2022-08-18T02:37:20;9.50;;;8.37;;
9200;SDS011;4635;48.686;9.008;2022-08-18T02:39:48;7.67;;;6.87;;
9200;SDS011;4635;48.686;9.008;2022-08-18T02:42:15;7.43;;;6.73;;
9200;SDS011;4635;48.686;9.008;2022-08-18T02:44:45;8.00;;;7.20;;
9200;SDS011;4635;48.686;9.008;2022-08-18T02:47:16;8.10;;;7.30;;
9200;SDS011;4635;48.686;9.008;2022-08-18T02:49:45;9.53;;;8.63;;
9200;SDS011;4635;48.686;9.008;2022-08-18T02:52:12;8.40;;;7.53;;
9200;SDS011;4635;48.686;9.008;2022-08-18T02:54:39;12.00;;;7.90;;
9200;SDS011;4635;48.686;9.008;2022-08-18T02:57:07;8.77;;;7.93;;
9200;SDS011;4635;48.686;9.008;2022-08-18T02:59:35;10.50;;;8.37;;
9200;SDS011;4635;48.686;9.008;2022-08-18T03:02:07;12.70;;;9.07;;
9200;SDS011;4635;48.686;9.008;2022-08-18T03:04:39;9.57;;;8.57;;
9200;SDS011;4635;48.686;9.008;2022-08-18T03:07:07;9.53;;;8.53;;
9200;SDS011;4635;48.686;9.008;2022-08-18T03:09:34;8.97;;;8.10;;
9200;SDS011;4635;48.686;9.008;2022-08-18T03:12:02;10.10;;;8.70;;
9200;SDS011;4635;48.686;9.008;2022-08-18T03:14:31;9.20;;;8.30;;
9200;SDS011;4635;48.686;9.008;2022-08-18T03:16:58;12.37;;;8.47;;
9200;SDS011;4635;48.686;9.008;2022-08-18T03:19:26;13.03;;;9.40;;
9200;SDS011;4635;48.686;9.008;2022-08-18T03:21:55;10.13;;;8.93;;
9200;SDS011;4635;48.686;9.008;2022-08-18T03:24:24;10.50;;;9.37;;
9200;SDS011;4635;48.686;9.008;2022-08-18T03:26:53;9.60;;;8.60;;
9200;SDS011;4635;48.686;9.008;2022-08-18T03:29:22;10.47;;;9.07;;
9200;SDS011;4635;48.686;9.008;2022-08-18T03:31:49;14.10;;;9.20;;
9200;SDS011;4635;48.686;9.008;2022-08-18T03:34:17;10.10;;;8.33;;
9200;SDS011;4635;48.686;9.008;2022-08-18T03:36:45;11.47;;;9.80;;
9200;SDS011;4635;48.686;9.008;2022-08-18T03:39:14;9.70;;;8.27;;
9200;SDS011;4635;48.686;9.008;2022-08-18T03:41:43;12.47;;;8.60;;
9200;SDS011;4635;48.686;9.008;2022-08-18T03:44:11;12.53;;;8.70;;
9200;SDS011;4635;48.686;9.008;2022-08-18T03:46:39;13.20;;;9.27;;
9200;SDS011;4635;48.686;9.008;2022-08-18T03:49:06;9.40;;;8.50;;
9200;SDS011;4635;48.686;9.008;2022-08-18T03:51:34;14.17;;;10.17;;
9200;SDS011;4635;48.686;9.008;2022-08-18T03:54:02;9.37;;;8.43;;
9200;SDS011;4635;48.686;9.008;2022-08-18T03:56:32;10.30;;;7.90;;
9200;SDS011;4635;48.686;9.008;2022-08-18T03:59:03;10.60;;;9.03;;
9200;SDS011;4635;48.686;9.008;2022-08-18T04:01:34;10.87;;;9.60;;
9200;SDS011;4635;48.686;9.008;2022-08-18T04:04:04;9.57;;;8.63;;
9200;SDS011;4635;48.686;9.008;2022-08-18T04:06:34;9.03;;;8.20;;
9200;SDS011;4635;48.686;9.008;2022-08-18T04:09:04;13.00;;;9.10;;
9200;SDS011;4635;48.686;9.008;2022-08-18T04:11:35;13.23;;;8.77;;
9200;SDS011;4635;48.686;9.008;2022-08-18T04:14:03;9.93;;;8.90;;
9200;SDS011;4635;48.686;9.008;2022-08-18T04:16:31;11.73;;;10.50;;
9200;SDS011;4635;48.686;9.008;2022-08-18T04:18:58;10.77;;;9.40;;
9200;SDS011;4635;48.686;9.008;2022-08-18T04:21:27;11.07;;;9.90;;
9200;SDS011;4635;48.686;9.008;2022-08-18T04:23:57;10.87;;;8.70;;
9200;SDS011;4635;48.686;9.008;2022-08-18T04:26:29;16.50;;;8.80;;
9200;SDS011;4635;48.686;9.008;2022-08-18T04:28:58;12.47;;;9.33;;
9200;SDS011;4635;48.686;9.008;2022-08-18T04:31:26;10.60;;;9.00;;
9200;SDS011;4635;48.686;9.008;2022-08-18T04:33:55;10.00;;;9.00;;
9200;SDS011;4635;48.686;9.008;2022-08-18T04:36:24;12.03;;;8.50;;
9200;SDS011;4635;48.686;9.008;2022-08-18T04:38:51;9.67;;;8.70;;
9200;SDS011;4635;48.686;9.008;2022-08-18T04:41:18;11.07;;;10.00;;
9200;SDS011;4635;48.686;9.008;2022-08-18T04:43:47;9.90;;;8.77;;
9200;SDS011;4635;48.686;9.008;2022-08-18T04:46:18;9.10;;;8.13;;
9200;SDS011;4635;48.686;9.008;2022-08-18T04:48:45;12.10;;;9.57;;
9200;SDS011;4635;48.686;9.008;2022-08-18T04:51:13;12.03;;;9.67;;
9200;SDS011;4635;48.686;9.008;2022-08-18T04:53:42;9.60;;;8.63;;
9200;SDS011;4635;48.686;9.008;2022-08-18T04:56:11;11.93;;;8.40;;
9200;SDS011;4635;48.686;9.008;2022-08-18T04:58:39;10.43;;;9.00;;
9200;SDS011;4635;48.686;9.008;2022-08-18T05:01:06;9.60;;;8.60;;
9200;SDS011;4635;48.686;9.008;2022-08-18T05:03:36;9.00;;;8.10;;
9200;SDS011;4635;48.686;9.008;2022-08-18T05:06:03;9.33;;;8.10;;
9200;SDS011;4635;48.686;9.008;2022-08-18T05:08:35;11.03;;;8.50;;
9200;SDS011;4635;48.686;9.008;2022-08-18T05:11:02;9.90;;;7.60;;
9200;SDS011;4635;48.686;9.008;2022-08-18T05:13:29;15.27;;;8.13;;
9200;SDS011;4635;48.686;9.008;2022-08-18T05:15:57;10.37;;;8.23;;
9200;SDS011;4635;48.686;9.008;2022-08-18T05:18:28;11.27;;;8.63;;
9200;SDS011;4635;48.686;9.008;2022-08-18T05:20:58;39.60;;;9.60;;
9200;SDS011;4635;48.686;9.008;2022-08-18T05:23:26;27.17;;;9.20;;
9200;SDS011;4635;48.686;9.008;2022-08-18T05:25:56;12.90;;;8.63;;
9200;SDS011;4635;48.686;9.008;2022-08-18T05:28:24;15.03;;;8.43;;
9200;SDS011;4635;48.686;9.008;2022-08-18T05:30:52;9.67;;;8.60;;
9200;SDS011;4635;48.686;9.008;2022-08-18T05:33:27;11.23;;;9.10;;
9200;SDS011;4635;48.686;9.008;2022-08-18T05:36:01;8.53;;;7.73;;
9200;SDS011;4635;48.686;9.008;2022-08-18T05:38:35;14.97;;;8.60;;
9200;SDS011;4635;48.686;9.008;2022-08-18T05:41:09;9.80;;;8.50;;
9200;SDS011;4635;48.686;9.008;2022-08-18T05:43:39;14.23;;;8.73;;
9200;SDS011;4635;48.686;9.008;2022-08-18T05:46:08;12.13;;;9.17;;
9200;SDS011;4635;48.686;9.008;2022-08-18T05:48:36;12.00;;;9.93;;
9200;SDS011;4635;48.686;9.008;2022-08-18T05:51:09;12.80;;;9.20;;
9200;SDS011;4635;48.686;9.008;2022-08-18T05:53:42;11.73;;;8.73;;
9200;SDS011;4635;48.686;9.008;2022-08-18T05:56:28;10.93;;;9.73;;
9200;SDS011;4635;48.686;9.008;2022-08-18T05:59:16;14.13;;;9.03;;
9200;SDS011;4635;48.686;9.008;2022-08-18T06:01:47;12.40;;;8.90;;
9200;SDS011;4635;48.686;9.008;2022-08-18T06:04:33;9.93;;;8.93;;
9200;SDS011;4635;48.686;9.008;2022-08-18T06:07:12;19.27;;;9.23;;
9200;SDS011;4635;48.686;9.008;2022-08-18T06:09:52;30.63;;;16.47;;
9200;SDS011;4635;48.686;9.008;2022-08-18T06:12:23;10.27;;;8.70;;
9200;SDS011;4635;48.686;9.008;2022-08-18T06:14:56;22.77;;;9.97;;
9200;SDS011;4635;48.686;9.008;2022-08-18T06:17:46;12.13;;;9.40;;
9200;SDS011;4635;48.686;9.008;2022-08-18T06:20:27;19.47;;;10.20;;
9200;SDS011;4635;48.686;9.008;2022-08-18T06:23:01;13.80;;;9.80;;
9200;SDS011;4635;48.686;9.008;2022-08-18T06:25:41;12.67;;;9.97;;
9200;SDS011;4635;48.686;9.008;2022-08-18T06:28:23;10.53;;;9.30;;
9200;SDS011;4635;48.686;9.008;2022-08-18T06:30:58;11.97;;;9.70;;
9200;SDS011;4635;48.686;9.008;2022-08-18T06:33:52;16.80;;;10.00;;
9200;SDS011;4635;48.686;9.008;2022-08-18T06:36:34;14.77;;;9.33;;
9200;SDS011;4635;48.686;9.008;2022-08-18T06:39:16;12.17;;;10.87;;
9200;SDS011;4635;48.686;9.008;2022-08-18T06:41:52;10.57;;;9.37;;
9200;SDS011;4635;48.686;9.008;2022-08-18T06:44:29;11.10;;;9.10;;
9200;SDS011;4635;48.686;9.008;2022-08-18T06:47:04;11.40;;;8.70;;
9200;SDS011;4635;48.686;9.008;2022-08-18T06:49:42;12.30;;;8.17;;
9200;SDS011;4635;48.686;9.008;2022-08-18T06:52:34;14.60;;;8.87;;
9200;SDS011;4635;48.686;9.008;2022-08-18T06:55:34;12.17;;;8.70;;
9200;SDS011;4635;48.686;9.008;2022-08-18T06:58:23;8.80;;;7.80;;
9200;SDS011;4635;48.686;9.008;2022-08-18T07:01:09;11.73;;;8.90;;
9200;SDS011;4635;48.686;9.008;2022-08-18T07:03:41;9.20;;;8.40;;
9200;SDS011;4635;48.686;9.008;2022-08-18T07:06:29;6.37;;;5.73;;
9200;SDS011;4635;48.686;9.008;2022-08-18T07:09:17;8.50;;;6.50;;
9200;SDS011;4635;48.686;9.008;2022-08-18T07:14:52;12.70;;;6.40;;
9200;SDS011;4635;48.686;9.008;2022-08-18T07:17:29;8.60;;;6.73;;
9200;SDS011;4635;48.686;9.008;2022-08-18T07:20:16;15.63;;;8.30;;
9200;SDS011;4635;48.686;9.008;2022-08-18T07:25:36;37.33;;;9.57;;
9200;SDS011;4635;48.686;9.008;2022-08-18T07:28:12;8.87;;;7.60;;
9200;SDS011;4635;48.686;9.008;2022-08-18T07:34:03;8.77;;;7.43;;
9200;SDS011;4635;48.686;9.008;2022-08-18T07:36:37;20.20;;;8.80;;
9200;SDS011;4635;48.686;9.008;2022-08-18T07:39:12;11.73;;;8.50;;
9200;SDS011;4635;48.686;9.008;2022-08-18T07:42:02;13.60;;;9.00;;
9200;SDS011;4635;48.686;9.008;2022-08-18T07:44:45;23.27;;;9.57;;
9200;SDS011;4635;48.686;9.008;2022-08-18T07:47:25;13.40;;;9.53;;
9200;SDS011;4635;48.686;9.008;2022-08-18T07:50:06;27.27;;;9.60;;
9200;SDS011;4635;48.686;9.008;2022-08-18T07:52:37;13.07;;;9.60;;
9200;SDS011;4635;48.686;9.008;2022-08-18T07:55:14;12.17;;;9.30;;
9200;SDS011;4635;48.686;9.008;2022-08-18T07:58:36;10.43;;;8.27;;
9200;SDS011;4635;48.686;9.008;2022-08-18T08:00:56;12.13;;;8.77;;
9200;SDS011;4635;48.686;9.008;2022-08-18T08:03:39;7.80;;;7.03;;
9200;SDS011;4635;48.686;9.008;2022-08-18T08:06:31;14.07;;;8.50;;
9200;SDS011;4635;48.686;9.008;2022-08-18T08:09:24;11.20;;;8.97;;
9200;SDS011;4635;48.686;9.008;2022-08-18T08:12:17;14.00;;;8.77;;
9200;SDS011;4635;48.686;9.008;2022-08-18T08:15:15;13.30;;;9.03;;
9200;SDS011;4635;48.686;9.008;2022-08-18T08:17:57;13.60;;;8.60;;
9200;SDS011;4635;48.686;9.008;2022-08-18T08:20:47;9.90;;;8.90;;
9200;SDS011;4635;48.686;9.008;2022-08-18T08:23:37;17.70;;;8.10;;
9200;SDS011;4635;48.686;9.008;2022-08-18T08:26:57;12.80;;;8.40;;
9200;SDS011;4635;48.686;9.008;2022-08-18T08:30:15;14.87;;;8.93;;
9200;SDS011;4635;48.686;9.008;2022-08-18T08:33:16;7.37;;;6.67;;
9200;SDS011;4635;48.686;9.008;2022-08-18T08:39:23;11.70;;;7.63;;
9200;SDS011;4635;48.686;9.008;2022-08-18T08:42:25;10.00;;;7.23;;
9200;SDS011;4635;48.686;9.008;2022-08-18T08:45:31;18.90;;;8.23;;
9200;SDS011;4635;48.686;9.008;2022-08-18T08:48:16;16.07;;;7.10;;
9200;SDS011;4635;48.686;9.008;2022-08-18T08:50:53;12.63;;;8.30;;
9200;SDS011;4635;48.686;9.008;2022-08-18T08:53:31;9.47;;;8.00;;
9200;SDS011;4635;48.686;9.008;2022-08-18T08:56:12;10.00;;;7.40;;
9200;SDS011;4635;48.686;9.008;2022-08-18T08:58:51;24.50;;;7.80;;
9200;SDS011;4635;48.686;9.008;2022-08-18T09:02:00;11.13;;;8.70;;
9200;SDS011;4635;48.686;9.008;2022-08-18T09:07:49;14.87;;;8.87;;
9200;SDS011;4635;48.686;9.008;2022-08-18T09:17:13;7.90;;;7.20;;
9200;SDS011;4635;48.686;9.008;2022-08-18T09:20:23;9.50;;;8.50;;
9200;SDS011;4635;48.686;9.008;2022-08-18T09:23:16;10.90;;;8.07;;
9200;SDS011;4635;48.686;9.008;2022-08-18T09:25:58;7.63;;;6.93;;
9200;SDS011;4635;48.686;9.008;2022-08-18T09:28:52;13.00;;;7.70;;
9200;SDS011;4635;48.686;9.008;2022-08-18T09:31:24;15.07;;;6.83;;
9200;SDS011;4635;48.686;9.008;2022-08-18T09:34:02;8.30;;;7.17;;
9200;SDS011;4635;48.686;9.008;2022-08-18T09:37:12;8.30;;;7.40;;
9200;SDS011;4635;48.686;9.008;2022-08-18T09:39:54;7.20;;;6.50;;
9200;SDS011;4635;48.686;9.008;2022-08-18T09:42:53;8.23;;;7.20;;
9200;SDS011;4635;48.686;9.008;2022-08-18T09:45:50;8.50;;;7.67;;
9200;SDS011;4635;48.686;9.008;2022-08-18T09:48:36;18.40;;;7.97;;
9200;SDS011;4635;48.686;9.008;2022-08-18T09:51:31;9.70;;;6.57;;
9200;SDS011;4635;48.686;9.008;2022-08-18T09:56:57;8.10;;;6.80;;
9200;SDS011;4635;48.686;9.008;2022-08-18T09:59:53;8.00;;;6.53;;
9200;SDS011;4635;48.686;9.008;2022-08-18T10:08:53;10.90;;;9.90;;
9200;SDS011;4635;48.686;9.008;2022-08-18T10:11:45;10.43;;;9.20;;
9200;SDS011;4635;48.686;9.008;2022-08-18T10:15:02;9.53;;;7.93;;
9200;SDS011;4635;48.686;9.008;2022-08-18T10:18:09;9.40;;;8.60;;
9200;SDS011;4635;48.686;9.008;2022-08-18T10:21:07;8.77;;;7.70;;
9200;SDS011;4635;48.686;9.008;2022-08-18T10:23:53;12.63;;;8.90;;
9200;SDS011;4635;48.686;9.008;2022-08-18T10:38:22;8.27;;;7.50;;
9200;SDS011;4635;48.686;9.008;2022-08-18T10:40:57;9.40;;;8.23;;
9200;SDS011;4635;48.686;9.008;2022-08-18T10:43:33;9.10;;;8.10;;
9200;SDS011;4635;48.686;9.008;2022-08-18T10:46:22;12.23;;;8.10;;
9200;SDS011;4635;48.686;9.008;2022-08-18T10:49:25;8.63;;;7.73;;
9200;SDS011;4635;48.686;9.008;2022-08-18T10:52:11;10.47;;;9.40;;
9200;SDS011;4635;48.686;9.008;2022-08-18T10:55:14;9.93;;;8.87;;
9200;SDS011;4635;48.686;9.008;2022-08-18T10:58:11;8.80;;;7.93;;
9200;SDS011;4635;48.686;9.008;2022-08-18T11:00:58;11.93;;;8.57;;
9200;SDS011;4635;48.686;9.008;2022-08-18T11:06:53;11.20;;;9.10;;
9200;SDS011;4635;48.686;9.008;2022-08-18T11:09:47;11.23;;;8.00;;
9200;SDS011;4635;48.686;9.008;2022-08-18T11:12:35;9.60;;;8.47;;
9200;SDS011;4635;48.686;9.008;2022-08-18T11:15:21;11.90;;;8.50;;
9200;SDS011;4635;48.686;9.008;2022-08-18T11:18:00;13.90;;;8.80;;
9200;SDS011;4635;48.686;9.008;2022-08-18T11:24:10;15.10;;;8.57;;
9200;SDS011;4635;48.686;9.008;2022-08-18T11:26:46;14.70;;;8.80;;
9200;SDS011;4635;48.686;9.008;2022-08-18T11:29:34;14.50;;;8.10;;
9200;SDS011;4635;48.686;9.008;2022-08-18T11:32:21;10.17;;;9.17;;
9200;SDS011;4635;48.686;9.008;2022-08-18T11:35:11;13.10;;;8.47;;
9200;SDS011;4635;48.686;9.008;2022-08-18T11:37:47;12.13;;;9.27;;
9200;SDS011;4635;48.686;9.008;2022-08-18T11:40:37;16.20;;;9.43;;
9200;SDS011;4635;48.686;9.008;2022-08-18T11:43:09;14.00;;;12.60;;
9200;SDS011;4635;48.686;9.008;2022-08-18T11:45:51;11.33;;;10.20;;
9200;SDS011;4635;48.686;9.008;2022-08-18T11:48:35;28.83;;;8.47;;
9200;SDS011;4635;48.686;9.008;2022-08-18T11:51:16;9.23;;;8.27;;
9200;SDS011;4635;48.686;9.008;2022-08-18T11:53:54;10.93;;;8.50;;
9200;SDS011;4635;48.686;9.008;2022-08-18T11:56:27;14.77;;;9.30;;
9200;SDS011;4635;48.686;9.008;2022-08-18T11:59:00;10.30;;;8.23;;
9200;SDS011;4635;48.686;9.008;2022-08-18T12:01:59;28.33;;;9.37;;
9200;SDS011;4635;48.686;9.008;2022-08-18T12:04:47;9.73;;;7.70;;
9200;SDS011;4635;48.686;9.008;2022-08-18T12:07:27;18.63;;;9.37;;
9200;SDS011;4635;48.686;9.008;2022-08-18T12:10:23;10.77;;;8.60;;
9200;SDS011;4635;48.686;9.008;2022-08-18T12:12:57;13.93;;;9.40;;
9200;SDS011;4635;48.686;9.008;2022-08-18T12:15:30;15.43;;;9.40;;
9200;SDS011;4635;48.686;9.008;2022-08-18T12:18:07;9.83;;;8.60;;
9200;SDS011;4635;48.686;9.008;2022-08-18T12:20:54;16.93;;;10.27;;
9200;SDS011;4635;48.686;9.008;2022-08-18T12:23:34;11.57;;;10.37;;
9200;SDS011;4635;48.686;9.008;2022-08-18T12:26:09;13.97;;;10.47;;
9200;SDS011;4635;48.686;9.008;2022-08-18T12:28:43;25.93;;;10.33;;
9200;SDS011;4635;48.686;9.008;2022-08-18T12:31:14;10.80;;;8.70;;
9200;SDS011;4635;48.686;9.008;2022-08-18T12:34:13;18.63;;;9.80;;
9200;SDS011;4635;48.686;9.008;2022-08-18T12:36:43;13.07;;;8.93;;
9200;SDS011;4635;48.686;9.008;2022-08-18T12:39:28;10.63;;;8.53;;
9200;SDS011;4635;48.686;9.008;2022-08-18T12:45:09;9.83;;;8.80;;
9200;SDS011;4635;48.686;9.008;2022-08-18T12:48:08;18.80;;;9.00;;
9200;SDS011;4635;48.686;9.008;2022-08-18T12:50:49;31.23;;;10.50;;
9200;SDS011;4635;48.686;9.008;2022-08-18T12:53:19;15.53;;;9.40;;
9200;SDS011;4635;48.686;9.008;2022-08-18T12:55:50;14.37;;;10.00;;
9200;SDS011;4635;48.686;9.008;2022-08-18T12:58:40;11.80;;;8.90;;
9200;SDS011;4635;48.686;9.008;2022-08-18T13:01:14;8.97;;;8.27;;
9200;SDS011;4635;48.686;9.008;2022-08-18T13:03:55;13.43;;;7.57;;
9200;SDS011;4635;48.686;9.008;2022-08-18T13:06:32;8.90;;;7.10;;
9200;SDS011;4635;48.686;9.008;2022-08-18T13:09:12;11.90;;;7.10;;
9200;SDS011;4635;48.686;9.008;2022-08-18T13:11:57;9.83;;;8.40;;
9200;SDS011;4635;48.686;9.008;2022-08-18T13:14:38;11.13;;;7.60;;
9200;SDS011;4635;48.686;9.008;2022-08-18T13:23:08;8.50;;;7.23;;
9200;SDS011;4635;48.686;9.008;2022-08-18T13:25:51;12.70;;;7.73;;
9200;SDS011;4635;48.686;9.008;2022-08-18T13:28:24;8.37;;;7.57;;
9200;SDS011;4635;48.686;9.008;2022-08-18T13:31:13;9.40;;;8.07;;
9200;SDS011;4635;48.686;9.008;2022-08-18T13:34:12;13.40;;;8.93;;
9200;SDS011;4635;48.686;9.008;2022-08-18T13:37:17;7.77;;;7.10;;
9200;SDS011;4635;48.686;9.008;2022-08-18T13:40:12;17.90;;;7.70;;
9200;SDS011;4635;48.686;9.008;2022-08-18T13:42:50;20.60;;;7.93;;
9200;SDS011;4635;48.686;9.008;2022-08-18T13:48:30;7.87;;;7.17;;
9200;SDS011;4635;48.686;9.008;2022-08-18T13:51:14;11.60;;;8.60;;
9200;SDS011;4635;48.686;9.008;2022-08-18T13:54:11;13.13;;;7.90;;
9200;SDS011;4635;48.686;9.008;2022-08-18T13:57:13;11.67;;;8.77;;
9200;SDS011;4635;48.686;9.008;2022-08-18T14:00:08;9.20;;;8.10;;
9200;SDS011;4635;48.686;9.008;2022-08-18T14:02:48;15.90;;;8.20;;
9200;SDS011;4635;48.686;9.008;2022-08-18T14:08:41;7.77;;;6.97;;
9200;SDS011;4635;48.686;9.008;2022-08-18T14:11:21;10.43;;;8.67;;
9200;SDS011;4635;48.686;9.008;2022-08-18T14:14:18;12.63;;;8.83;;
9200;SDS011;4635;48.686;9.008;2022-08-18T14:17:24;10.80;;;9.30;;
9200;SDS011;4635;48.686;9.008;2022-08-18T14:20:38;12.10;;;8.30;;
9200;SDS011;4635;48.686;9.008;2022-08-18T14:23:23;10.87;;;8.90;;
9200;SDS011;4635;48.686;9.008;2022-08-18T14:26:17;11.07;;;8.23;;
9200;SDS011;4635;48.686;9.008;2022-08-18T14:29:34;14.53;;;8.50;;
9200;SDS011;4635;48.686;9.008;2022-08-18T14:32:34;8.50;;;7.40;;
9200;SDS011;4635;48.686;9.008;2022-08-18T14:35:31;12.70;;;8.40;;
9200;SDS011;4635;48.686;9.008;2022-08-18T14:38:33;8.70;;;7.90;;
9200;SDS011;4635;48.686;9.008;2022-08-18T14:45:25;10.23;;;7.57;;
9200;SDS011;4635;48.686;9.008;2022-08-18T14:47:48;14.03;;;9.30;;
9200;SDS011;4635;48.686;9.008;2022-08-18T14:51:04;12.37;;;9.33;;
9200;SDS011;4635;48.686;9.008;2022-08-18T14:54:02;12.77;;;9.70;;
9200;SDS011;4635;48.686;9.008;2022-08-18T15:00:32;12.83;;;8.60;;
9200;SDS011;4635;48.686;9.008;2022-08-18T15:03:36;12.10;;;7.73;;
9200;SDS011;4635;48.686;9.008;2022-08-18T15:06:43;14.40;;;8.50;;
9200;SDS011;4635;48.686;9.008;2022-08-18T15:09:41;8.10;;;7.30;;
9200;SDS011;4635;48.686;9.008;2022-08-18T15:12:48;8.90;;;8.00;;
9200;SDS011;4635;48.686;9.008;2022-08-18T15:28:42;10.57;;;8.30;;
9200;SDS011;4635;48.686;9.008;2022-08-18T15:31:42;17.67;;;8.43;;
9200;SDS011;4635;48.686;9.008;2022-08-18T15:34:30;9.30;;;7.97;;
9200;SDS011;4635;48.686;9.008;2022-08-18T15:40:36;14.03;;;7.73;;
9200;SDS011;4635;48.686;9.008;2022-08-18T15:43:40;11.20;;;7.40;;
9200;SDS011;4635;48.686;9.008;2022-08-18T15:49:41;12.50;;;6.90;;
9200;SDS011;4635;48.686;9.008;2022-08-18T15:52:21;13.60;;;7.80;;
9200;SDS011;4635;48.686;9.008;2022-08-18T15:55:14;8.57;;;6.67;;
9200;SDS011;4635;48.686;9.008;2022-08-18T15:58:16;10.17;;;8.70;;
9200;SDS011;4635;48.686;9.008;2022-08-18T16:01:16;9.30;;;7.70;;
9200;SDS011;4635;48.686;9.008;2022-08-18T16:06:45;8.17;;;7.40;;
9200;SDS011;4635;48.686;9.008;2022-08-18T16:09:36;28.07;;;18.83;;
9200;SDS011;4635;48.686;9.008;2022-08-18T16:12:35;10.43;;;8.47;;
9200;SDS011;4635;48.686;9.008;2022-08-18T16:15:40;9.20;;;7.63;;
9200;SDS011;4635;48.686;9.008;2022-08-18T16:18:44;13.00;;;8.53;;
9200;SDS011;4635;48.686;9.008;2022-08-18T16:21:25;11.50;;;8.20;;
9200;SDS011;4635;48.686;9.008;2022-08-18T16:24:19;9.23;;;7.20;;
9200;SDS011;4635;48.686;9.008;2022-08-18T16:27:01;9.17;;;8.27;;
9200;SDS011;4635;48.686;9.008;2022-08-18T16:29:36;13.00;;;8.30;;
9200;SDS011;4635;48.686;9.008;2022-08-18T16:35:36;12.47;;;7.43;;
9200;SDS011;4635;48.686;9.008;2022-08-18T16:38:32;9.73;;;8.57;;
9200;SDS011;4635;48.686;9.008;2022-08-18T16:41:08;8.87;;;8.07;;
9200;SDS011;4635;48.686;9.008;2022-08-18T16:43:44;9.50;;;7.57;;
9200;SDS011;4635;48.686;9.008;2022-08-18T16:46:14;9.43;;;8.47;;
9200;SDS011;4635;48.686;9.008;2022-08-18T16:48:45;11.00;;;7.97;;
9200;SDS011;4635;48.686;9.008;2022-08-18T16:54:04;9.83;;;7.53;;
9200;SDS011;4635;48.686;9.008;2022-08-18T16:56:38;7.40;;;6.30;;
9200;SDS011;4635;48.686;9.008;2022-08-18T16:59:14;7.27;;;6.67;;
9200;SDS011;4635;48.686;9.008;2022-08-18T17:01:58;7.90;;;6.40;;
9200;SDS011;4635;48.686;9.008;2022-08-18T17:04:56;7.97;;;6.40;;
9200;SDS011;4635;48.686;9.008;2022-08-18T17:07:36;8.23;;;7.20;;
9200;SDS011;4635;48.686;9.008;2022-08-18T17:10:13;9.07;;;7.00;;
9200;SDS011;4635;48.686;9.008;2022-08-18T17:12:51;8.67;;;7.83;;
9200;SDS011;4635;48.686;9.008;2022-08-18T17:18:37;11.20;;;9.10;;
9200;SDS011;4635;48.686;9.008;2022-08-18T17:21:12;10.30;;;9.07;;
9200;SDS011;4635;48.686;9.008;2022-08-18T17:24:10;10.87;;;9.60;;
9200;SDS011;4635;48.686;9.008;2022-08-18T17:26:41;16.50;;;10.60;;
9200;SDS011;4635;48.686;9.008;2022-08-18T17:29:24;10.13;;;8.63;;
9200;SDS011;4635;48.686;9.008;2022-08-18T17:31:59;12.27;;;9.23;;
9200;SDS011;4635;48.686;9.008;2022-08-18T17:34:38;12.27;;;10.43;;
9200;SDS011;4635;48.686;9.008;2022-08-18T17:37:11;11.90;;;10.03;;
9200;SDS011;4635;48.686;9.008;2022-08-18T17:39:54;12.37;;;9.87;;
9200;SDS011;4635;48.686;9.008;2022-08-18T17:42:28;12.90;;;11.50;;
9200;SDS011;4635;48.686;9.008;2022-08-18T17:45:06;13.60;;;11.93;;
9200;SDS011;4635;48.686;9.008;2022-08-18T17:47:45;19.60;;;13.80;;
9200;SDS011;4635;48.686;9.008;2022-08-18T17:50:27;18.07;;;14.13;;
9200;SDS011;4635;48.686;9.008;2022-08-18T17:53:17;15.60;;;13.50;;
9200;SDS011;4635;48.686;9.008;2022-08-18T17:55:54;20.40;;;15.27;;
9200;SDS011;4635;48.686;9.008;2022-08-18T17:58:35;18.17;;;15.87;;
9200;SDS011;4635;48.686;9.008;2022-08-18T18:01:15;18.73;;;15.77;;
9200;SDS011;4635;48.686;9.008;2022-08-18T18:04:04;23.27;;;18.90;;
9200;SDS011;4635;48.686;9.008;2022-08-18T18:06:47;23.43;;;17.57;;